KMSS/MSS METAR and TAF weather

Enter ICAO airport designator
Station Type Date Time Source
KMSS METAR 2021/08/01 16:53 UTC NOAA

KMSS 011653Z AUTO 04006KT 10SM BKN025 OVC031 17/13 A2987 RMK AO2 SLP114 T01720128


Station Type Date Time Source
KMSS Decoded METAR 2021/08/01 16:53 UTC NOAA

MASSENA INTERNATIONAL -RICHARDS FLD, NY, United States (KMSS) 44-56N 074-51W 66M
Aug 01, 2021 - 12:53 PM EDT / 2021.08.01 1653 UTC
Wind: from the NE (040 degrees) at 7 MPH (6 KT):0
Visibility: 10 mile(s):0
Sky conditions: overcast
Temperature: 63.0 F (17.2 C)
Dew Point: 55.0 F (12.8 C)
Relative Humidity: 75%
Pressure (altimeter): 29.87 in. Hg (1011 hPa)
ob: KMSS 011653Z AUTO 04006KT 10SM BKN025 OVC031 17/13 A2987 RMK AO2 SLP114 T01720128
cycle: 17

Station Type Date Time Source
KMSS TAF 2021/08/01 18:24 UTC NOAA

TAF KMSS 011721Z 0118/0218 VRB04KT P6SM VCSH OVC028
FM012300 VRB03KT P6SM VCSH OVC040
FM020200 VRB03KT P6SM VCSH OVC090
FM020500 VRB03KT P6SM OVC070
FM021600 31007KT P6SM SCT200

Example: see airport list